createdAt,value
2023-04-04T00:00:43.943Z,54.76
2023-04-04T00:03:52.096Z,56.25
2023-04-04T00:06:58.078Z,56.12
2023-04-04T00:10:03.652Z,55.82
2023-04-04T00:13:09.899Z,56.02
2023-04-04T00:16:15.273Z,56.68
2023-04-04T00:19:20.636Z,57.26
2023-04-04T00:22:26.313Z,57.15
2023-04-04T00:25:31.872Z,57.49
2023-04-04T00:28:37.555Z,57.25
2023-04-04T00:31:43.483Z,57.95
2023-04-04T00:34:55.128Z,57.96
2023-04-04T00:38:00.808Z,58.37
2023-04-04T00:41:06.982Z,59.37
2023-04-04T00:44:12.655Z,59.89
2023-04-04T00:47:18.523Z,59.73
2023-04-04T00:50:24.151Z,60.50
2023-04-04T00:53:29.665Z,60.57
2023-04-04T00:56:39.187Z,61.26
2023-04-04T00:59:44.836Z,61.34
2023-04-04T01:02:51.051Z,62.23
2023-04-04T01:05:56.613Z,64.15
2023-04-04T01:09:03.140Z,63.90
2023-04-04T01:12:08.927Z,64.52
2023-04-04T01:15:14.397Z,62.98
2023-04-04T01:18:22.957Z,62.76
2023-04-04T01:21:30.645Z,62.94
2023-04-04T01:24:38.452Z,63.02
2023-04-04T01:27:44.203Z,63.32
2023-04-04T01:30:53.480Z,64.46
2023-04-04T01:34:11.369Z,64.64
2023-04-04T01:37:28.260Z,63.89
2023-04-04T01:40:37.926Z,64.25
2023-04-04T01:43:46.925Z,65.34
2023-04-04T01:46:56.059Z,65.53
2023-04-04T01:50:02.856Z,66.34
2023-04-04T01:53:08.132Z,66.78
2023-04-04T01:56:14.054Z,67.67
2023-04-04T01:59:19.430Z,69.08
2023-04-04T02:02:24.636Z,72.66
2023-04-04T02:05:30.370Z,71.72
2023-04-04T02:08:36.688Z,72.46
2023-04-04T02:11:42.974Z,71.46
2023-04-04T02:14:48.365Z,71.65
2023-04-04T02:17:53.971Z,71.65
2023-04-04T02:20:59.686Z,74.94
2023-04-04T02:24:05.845Z,73.15
2023-04-04T02:27:10.945Z,74.10
2023-04-04T02:30:17.169Z,74.96
2023-04-04T02:33:23.225Z,75.76
2023-04-04T02:36:29.178Z,79.61
2023-04-04T02:39:36.001Z,81.82
2023-04-04T02:42:45.286Z,78.00
2023-04-04T02:45:51.637Z,81.61
2023-04-04T02:49:03.913Z,81.25
2023-04-04T02:52:10.723Z,84.09
2023-04-04T02:55:19.443Z,80.72
2023-04-04T02:58:24.833Z,80.01
2023-04-04T03:01:31.088Z,82.58
2023-04-04T03:04:39.824Z,81.48
2023-04-04T03:07:44.910Z,80.08
2023-04-04T03:10:50.252Z,85.92
2023-04-04T03:13:56.244Z,88.03
2023-04-04T03:17:10.933Z,89.88
2023-04-04T03:20:16.404Z,88.19
2023-04-04T03:23:23.491Z,86.37
2023-04-04T03:26:29.613Z,83.34
2023-04-04T03:29:35.624Z,83.22
2023-04-04T03:32:41.897Z,85.61
2023-04-04T03:35:48.102Z,96.77
2023-04-04T03:38:53.959Z,90.77
2023-04-04T03:41:59.152Z,90.25
2023-04-04T03:45:04.614Z,89.24
2023-04-04T03:48:12.656Z,89.25
2023-04-04T03:51:25.695Z,90.69
2023-04-04T03:54:30.855Z,93.92
2023-04-04T03:57:37.075Z,95.34
2023-04-04T04:00:47.204Z,91.55
2023-04-04T04:03:52.680Z,98.46
2023-04-04T04:06:58.775Z,97.67
2023-04-04T04:10:05.631Z,91.09
2023-04-04T04:13:11.768Z,88.91
2023-04-04T04:16:17.574Z,89.11
2023-04-04T04:19:23.846Z,89.98
2023-04-04T04:22:29.627Z,90.26
2023-04-04T04:25:35.687Z,90.49
2023-04-04T04:28:49.524Z,90.27
2023-04-04T04:32:02.052Z,88.33
2023-04-04T04:35:11.081Z,90.11
2023-04-04T04:38:17.420Z,90.07
2023-04-04T04:41:23.266Z,97.11
2023-04-04T04:44:30.187Z,98.43
2023-04-04T04:47:35.809Z,95.06
2023-04-04T04:50:48.359Z,92.32
2023-04-04T04:54:02.072Z,83.16
2023-04-04T04:57:10.061Z,87.49
2023-04-04T05:00:19.936Z,80.62
2023-04-04T05:03:26.556Z,79.12
2023-04-04T05:06:32.085Z,73.80
2023-04-04T05:09:39.010Z,74.19
2023-04-04T05:12:45.731Z,68.98
2023-04-04T05:15:58.717Z,66.92
2023-04-04T05:19:04.539Z,66.66
2023-04-04T05:22:16.567Z,62.50
2023-04-04T05:25:27.841Z,60.57
2023-04-04T05:28:33.473Z,60.29
2023-04-04T05:31:41.847Z,58.46
2023-04-04T05:34:54.409Z,59.27
2023-04-04T05:38:01.347Z,59.19
2023-04-04T05:41:07.390Z,58.50
2023-04-04T05:44:12.805Z,57.56
2023-04-04T05:47:18.284Z,58.22
2023-04-04T05:50:27.301Z,57.62
2023-04-04T05:53:39.000Z,57.29
2023-04-04T05:56:44.850Z,56.25
2023-04-04T05:59:58.319Z,57.11
2023-04-04T06:03:04.990Z,55.90
2023-04-04T06:06:10.757Z,54.38
2023-04-04T06:09:16.870Z,54.66
2023-04-04T06:12:22.749Z,54.79
2023-04-04T06:15:28.737Z,54.79
2023-04-04T06:18:35.281Z,53.06
2023-04-04T06:21:40.698Z,53.10
2023-04-04T06:24:47.032Z,53.50
2023-04-04T06:27:52.671Z,52.34
2023-04-04T06:30:58.263Z,51.22
2023-04-04T06:34:10.726Z,50.78
2023-04-04T06:37:34.637Z,50.19
2023-04-04T06:40:48.844Z,48.80
2023-04-04T06:43:54.556Z,49.86
2023-04-04T06:47:00.113Z,48.97
2023-04-04T06:50:06.401Z,47.06
2023-04-04T06:53:12.591Z,46.75
2023-04-04T06:56:18.213Z,45.96
2023-04-04T06:59:23.658Z,46.97
2023-04-04T07:02:29.089Z,46.36
2023-04-04T07:05:39.795Z,46.05
2023-04-04T07:08:45.071Z,46.25
2023-04-04T07:11:50.397Z,47.57
2023-04-04T07:14:56.263Z,45.21
2023-04-04T07:18:02.226Z,46.05
2023-04-04T07:21:07.790Z,45.45
2023-04-04T07:24:13.424Z,45.77
2023-04-04T07:27:18.950Z,45.92
2023-04-04T07:30:28.048Z,45.18
2023-04-04T07:33:33.805Z,45.90
2023-04-04T07:36:39.310Z,45.61
2023-04-04T07:39:45.607Z,45.34
2023-04-04T07:42:52.033Z,45.48
2023-04-04T07:45:57.427Z,45.20
2023-04-04T07:49:03.068Z,44.96
2023-04-04T07:52:09.364Z,44.41
2023-04-04T07:55:16.710Z,45.14
2023-04-04T07:58:22.634Z,44.92
2023-04-04T08:01:28.152Z,45.05
2023-04-04T08:04:33.846Z,44.45
2023-04-04T08:07:39.319Z,44.89
2023-04-04T08:10:46.287Z,44.04
2023-04-04T08:13:52.041Z,44.46
2023-04-04T08:16:57.895Z,45.27
2023-04-04T08:20:04.351Z,44.47
2023-04-04T08:23:10.241Z,44.71
2023-04-04T08:26:15.778Z,44.65
2023-04-04T08:29:21.611Z,44.96
2023-04-04T08:32:27.567Z,44.43
2023-04-04T08:35:33.360Z,45.06
2023-04-04T08:38:39.412Z,44.08
2023-04-04T08:41:46.681Z,44.71
2023-04-04T08:44:55.346Z,43.82
2023-04-04T08:48:05.306Z,43.52
2023-04-04T08:51:14.485Z,42.07
2023-04-04T08:54:22.439Z,42.61
2023-04-04T08:57:27.980Z,41.67
2023-04-04T09:00:33.846Z,42.35
2023-04-04T09:03:40.930Z,42.19
2023-04-04T09:06:47.188Z,40.51
2023-04-04T09:09:54.242Z,42.38
2023-04-04T09:13:12.530Z,42.73
2023-04-04T09:16:21.473Z,40.93
2023-04-04T09:19:27.849Z,40.00
2023-04-04T09:22:33.417Z,40.28
2023-04-04T09:25:56.244Z,37.75
2023-04-04T09:29:08.962Z,39.38
2023-04-04T09:32:16.487Z,39.71
2023-04-04T09:35:22.119Z,40.05
2023-04-04T09:38:29.717Z,40.35
2023-04-04T09:41:35.428Z,41.55
2023-04-04T09:44:41.377Z,40.32
2023-04-04T09:47:47.357Z,40.78
2023-04-04T09:50:53.054Z,39.83
2023-04-04T09:53:58.825Z,40.07
2023-04-04T09:57:04.838Z,39.36
2023-04-04T10:00:12.955Z,39.65
2023-04-04T10:03:22.469Z,39.24
2023-04-04T10:06:28.331Z,39.99
2023-04-04T10:09:38.488Z,39.20
2023-04-04T10:12:47.618Z,39.78
2023-04-04T10:15:54.061Z,39.57
2023-04-04T10:19:01.757Z,40.92
2023-04-04T10:22:07.951Z,40.37
2023-04-04T10:25:14.455Z,39.32
2023-04-04T10:28:21.852Z,39.39
2023-04-04T10:31:28.812Z,40.59
2023-04-04T10:34:45.502Z,38.68
2023-04-04T10:38:00.139Z,39.55
2023-04-04T10:41:07.859Z,40.67
2023-04-04T10:44:29.627Z,39.41
2023-04-04T10:47:37.015Z,40.05
2023-04-04T10:50:43.319Z,40.10
2023-04-04T10:53:50.326Z,39.27
2023-04-04T10:57:02.406Z,39.78
2023-04-04T11:00:10.948Z,40.05
2023-04-04T11:03:16.262Z,40.34
2023-04-04T11:06:25.045Z,40.68
2023-04-04T11:09:49.564Z,39.97
2023-04-04T11:13:11.392Z,40.41
2023-04-04T11:16:21.467Z,40.91
2023-04-04T11:19:26.763Z,41.26
2023-04-04T11:22:32.481Z,41.58
2023-04-04T11:25:42.553Z,42.26
2023-04-04T11:28:49.070Z,41.22
2023-04-04T11:31:54.568Z,41.88
2023-04-04T11:35:00.120Z,41.71
2023-04-04T11:38:14.128Z,42.61
2023-04-04T11:41:21.096Z,41.22
2023-04-04T11:44:31.077Z,41.34
2023-04-04T11:47:40.280Z,41.33
2023-04-04T11:50:51.789Z,42.02
2023-04-04T11:53:57.421Z,41.54
2023-04-04T11:57:04.054Z,40.82
2023-04-04T12:00:12.725Z,40.23
2023-04-04T12:03:18.929Z,41.14
2023-04-04T12:06:25.905Z,40.23
2023-04-04T12:09:31.480Z,40.89
2023-04-04T12:12:39.953Z,39.84
2023-04-04T12:15:48.751Z,40.84
2023-04-04T12:18:54.622Z,39.21
2023-04-04T12:22:00.231Z,38.30
2023-04-04T12:25:06.533Z,40.03
2023-04-04T12:28:13.232Z,39.35
2023-04-04T12:31:19.146Z,40.56
2023-04-04T12:37:37.399Z,39.08
2023-04-04T12:40:44.892Z,38.82
2023-04-04T12:43:50.591Z,38.83
2023-04-04T12:47:03.440Z,38.55
2023-04-04T12:50:09.724Z,39.39
2023-04-04T12:53:27.968Z,39.18
2023-04-04T12:56:37.583Z,37.74
2023-04-04T12:59:47.858Z,38.01
2023-04-04T13:02:53.489Z,38.89
2023-04-04T13:06:00.457Z,38.75
2023-04-04T13:09:07.934Z,40.78
2023-04-04T13:12:14.727Z,40.08
2023-04-04T13:15:20.336Z,38.81
2023-04-04T13:18:26.927Z,38.66
2023-04-04T13:21:32.743Z,38.78
2023-04-04T13:24:39.886Z,38.67
2023-04-04T13:27:46.622Z,40.37
2023-04-04T13:30:52.423Z,38.29
2023-04-04T13:33:57.784Z,38.15
2023-04-04T13:37:03.253Z,37.73
2023-04-04T13:40:10.072Z,38.63
2023-04-04T13:43:15.649Z,38.44
2023-04-04T13:46:20.738Z,38.27
2023-04-04T13:49:26.249Z,38.50
2023-04-04T13:52:31.480Z,39.56
2023-04-04T13:55:37.254Z,39.22
2023-04-04T13:58:43.324Z,38.64
2023-04-04T14:01:48.913Z,38.39
2023-04-04T14:04:54.222Z,37.12
2023-04-04T14:07:59.375Z,37.35
2023-04-04T14:11:05.076Z,38.04
2023-04-04T14:14:10.685Z,37.69
2023-04-04T14:17:16.224Z,37.59
2023-04-04T14:20:21.866Z,38.71
2023-04-04T14:23:27.591Z,38.17
2023-04-04T14:26:34.077Z,37.52
2023-04-04T14:29:40.477Z,38.03
2023-04-04T14:32:46.527Z,36.56
2023-04-04T14:35:52.218Z,37.20
2023-04-04T14:38:58.409Z,38.43
2023-04-04T14:42:04.340Z,37.81
2023-04-04T14:45:12.532Z,38.06
2023-04-04T14:48:17.875Z,38.97
2023-04-04T14:51:23.694Z,38.32
2023-04-04T14:54:29.118Z,38.53
2023-04-04T14:57:39.345Z,38.87
2023-04-04T15:00:49.669Z,37.68
2023-04-04T15:03:56.038Z,37.98
2023-04-04T15:07:03.483Z,38.04
2023-04-04T15:10:09.481Z,37.36
2023-04-04T15:13:15.178Z,37.33
2023-04-04T15:16:21.853Z,38.12
2023-04-04T15:19:27.427Z,37.86
2023-04-04T15:22:33.081Z,38.78
2023-04-04T15:25:38.805Z,37.94
2023-04-04T15:28:44.253Z,37.15
2023-04-04T15:31:49.958Z,37.11
2023-04-04T15:34:55.832Z,37.81
2023-04-04T15:38:01.518Z,38.27
2023-04-04T15:41:10.422Z,37.50
2023-04-04T15:44:17.499Z,38.40
2023-04-04T15:47:24.021Z,38.58
2023-04-04T15:50:30.289Z,39.13
2023-04-04T15:53:36.541Z,37.40
2023-04-04T15:56:42.086Z,38.30
2023-04-04T15:59:47.954Z,37.81
2023-04-04T16:02:53.206Z,38.48
2023-04-04T16:05:58.310Z,38.47
2023-04-04T16:09:03.681Z,38.63
2023-04-04T16:12:08.571Z,37.76
2023-04-04T16:15:13.682Z,38.92
2023-04-04T16:18:18.803Z,37.96
2023-04-04T16:21:24.400Z,38.50
2023-04-04T16:24:29.308Z,39.55
2023-04-04T16:27:34.769Z,38.52
2023-04-04T16:30:40.036Z,38.42
2023-04-04T16:33:45.417Z,37.41
2023-04-04T16:36:50.613Z,39.05
2023-04-04T16:39:56.787Z,39.80
2023-04-04T16:43:03.041Z,38.62
2023-04-04T16:46:08.571Z,38.09
2023-04-04T16:49:14.392Z,38.58
2023-04-04T16:52:19.569Z,39.05
2023-04-04T16:55:27.782Z,39.38
2023-04-04T16:58:32.828Z,39.31
2023-04-04T17:01:38.266Z,39.91
2023-04-04T17:04:45.044Z,41.15
2023-04-04T17:07:51.121Z,39.14
2023-04-04T17:10:56.610Z,41.42
2023-04-04T17:14:02.572Z,39.57
2023-04-04T17:17:09.062Z,39.38
2023-04-04T17:20:18.327Z,41.86
2023-04-04T17:23:24.390Z,42.31
2023-04-04T17:26:30.072Z,43.17
2023-04-04T17:29:36.229Z,42.57
2023-04-04T17:32:41.593Z,42.95
2023-04-04T17:35:48.612Z,43.17
2023-04-04T17:38:54.002Z,43.94
2023-04-04T17:41:59.233Z,42.85
2023-04-04T17:45:05.325Z,44.19
2023-04-04T17:48:11.801Z,43.31
2023-04-04T17:51:18.966Z,44.78
2023-04-04T17:54:26.261Z,43.62
2023-04-04T17:57:31.798Z,45.63
2023-04-04T18:00:37.243Z,45.65
2023-04-04T18:03:43.134Z,46.06
2023-04-04T18:06:49.534Z,46.56
2023-04-04T18:09:54.853Z,45.99
2023-04-04T18:13:00.354Z,46.00
2023-04-04T18:16:07.805Z,45.53
2023-04-04T18:19:13.572Z,46.39
2023-04-04T18:22:19.650Z,46.26
2023-04-04T18:25:25.829Z,46.33
2023-04-04T18:28:31.100Z,47.40
2023-04-04T18:31:36.864Z,47.63
2023-04-04T18:34:42.244Z,47.13
2023-04-04T18:37:47.470Z,46.65
2023-04-04T18:40:52.991Z,46.99
2023-04-04T18:43:58.523Z,47.46
2023-04-04T18:47:05.574Z,47.88
2023-04-04T18:50:12.728Z,49.27
2023-04-04T18:53:18.006Z,48.37
2023-04-04T18:56:23.507Z,49.59
2023-04-04T18:59:29.831Z,49.86
2023-04-04T19:02:37.623Z,50.29
2023-04-04T19:05:49.173Z,51.10
2023-04-04T19:08:59.120Z,50.46
2023-04-04T19:12:04.760Z,50.28
2023-04-04T19:15:10.879Z,51.11
2023-04-04T19:18:16.516Z,51.38
2023-04-04T19:21:22.222Z,51.35
2023-04-04T19:24:27.667Z,51.01
2023-04-04T19:27:33.105Z,51.19
2023-04-04T19:30:48.135Z,50.43
2023-04-04T19:33:57.092Z,51.22
2023-04-04T19:37:02.873Z,50.76
2023-04-04T19:40:16.727Z,50.68
2023-04-04T19:43:23.077Z,52.53
2023-04-04T19:46:33.785Z,52.08
2023-04-04T19:49:39.906Z,53.12
2023-04-04T19:52:45.233Z,54.34
2023-04-04T19:55:50.800Z,52.90
2023-04-04T19:59:03.739Z,52.46
2023-04-04T20:02:35.257Z,52.94
2023-04-04T20:05:41.064Z,52.66
2023-04-04T20:08:49.249Z,51.77
2023-04-04T20:11:54.672Z,54.08
2023-04-04T20:15:00.053Z,53.12
2023-04-04T20:18:08.097Z,53.73
2023-04-04T20:21:23.328Z,54.99
2023-04-04T20:24:28.851Z,55.78
2023-04-04T20:27:37.146Z,57.17
2023-04-04T20:30:42.418Z,54.48
2023-04-04T20:33:48.576Z,57.56
2023-04-04T20:36:54.279Z,58.31
2023-04-04T20:40:03.471Z,61.56
2023-04-04T20:43:08.893Z,63.85
2023-04-04T20:46:14.536Z,66.27
2023-04-04T20:49:20.246Z,64.24
2023-04-04T20:52:26.400Z,65.92
2023-04-04T20:55:34.700Z,64.73
2023-04-04T20:58:39.990Z,63.07
2023-04-04T21:01:45.428Z,63.61
2023-04-04T21:04:52.283Z,61.76
2023-04-04T21:07:59.275Z,59.76
2023-04-04T21:11:07.007Z,62.43
2023-04-04T21:14:30.931Z,57.24
2023-04-04T21:17:36.763Z,56.36
2023-04-04T21:20:47.843Z,56.31
2023-04-04T21:23:59.112Z,57.28
2023-04-04T21:27:07.263Z,57.67
2023-04-04T21:30:46.311Z,58.27
2023-04-04T21:33:55.111Z,58.64
2023-04-04T21:37:02.437Z,58.22
2023-04-04T21:40:09.723Z,57.60
2023-04-04T21:43:15.169Z,57.55
2023-04-04T21:46:24.049Z,56.63
2023-04-04T21:49:29.757Z,56.75
2023-04-04T21:52:34.855Z,56.78
2023-04-04T21:55:39.826Z,56.30
2023-04-04T21:58:45.568Z,54.86
2023-04-04T22:01:51.405Z,55.44
2023-04-04T22:04:57.565Z,54.62
2023-04-04T22:08:03.109Z,56.80
2023-04-04T22:11:13.701Z,57.45
2023-04-04T22:14:19.145Z,57.84
2023-04-04T22:17:25.123Z,55.39
2023-04-04T22:20:32.547Z,55.40
2023-04-04T22:23:37.648Z,53.94
2023-04-04T22:26:42.807Z,55.72
2023-04-04T22:29:47.963Z,55.41
2023-04-04T22:32:53.204Z,56.13
2023-04-04T22:35:59.537Z,55.48
2023-04-04T22:39:06.041Z,56.27
2023-04-04T22:42:13.053Z,54.98
2023-04-04T22:45:18.717Z,55.53
2023-04-04T22:48:24.671Z,55.17
2023-04-04T22:51:31.297Z,54.79
2023-04-04T22:54:37.229Z,54.38
2023-04-04T22:57:43.546Z,54.46
2023-04-04T23:00:49.070Z,55.73
2023-04-04T23:03:54.155Z,56.24
2023-04-04T23:06:59.457Z,55.62
2023-04-04T23:10:06.689Z,54.12
2023-04-04T23:13:12.202Z,54.06
2023-04-04T23:16:17.842Z,55.33
2023-04-04T23:19:23.909Z,53.95
2023-04-04T23:22:29.659Z,54.05
2023-04-04T23:25:35.496Z,53.76
2023-04-04T23:28:41.254Z,54.00
2023-04-04T23:31:46.541Z,54.88
2023-04-04T23:34:51.531Z,55.73
2023-04-04T23:37:57.002Z,56.66
2023-04-04T23:41:02.748Z,56.26
2023-04-04T23:44:08.179Z,56.06
2023-04-04T23:47:13.957Z,54.78
2023-04-04T23:50:20.177Z,54.20
2023-04-04T23:53:26.357Z,53.83
2023-04-04T23:56:33.106Z,53.52
2023-04-04T23:59:38.900Z,52.93
